This is the latest recevied weather packets stored in our database for station/object OK1HOL-13. If no packets are shown the sender has not sent any weather packets the latest 10 day(s).
| Time | Temp. | Humidity | Pressure | Rain* | Wind** | Luminosity | Snow |
|---|---|---|---|---|---|---|---|
| 1777763152 | 14.44° C | 48% | 1017.7 hPa | - | - | 0 W/m² | - |
| 1777762552 | 14.44° C | 48% | 1017.7 hPa | - | - | 0 W/m² | - |
| 1777761952 | 14.44° C | 48% | 1017.8 hPa | - | - | 0 W/m² | - |
| 1777761352 | 15° C | 46% | 1017.8 hPa | - | - | 0 W/m² | - |
| 1777760752 | 15° C | 46% | 1017.8 hPa | - | - | 0 W/m² | - |
| 1777760152 | 15.56° C | 45% | 1017.8 hPa | - | - | 0 W/m² | - |
| 1777759552 | 15.56° C | 45% | 1017.8 hPa | - | - | 0 W/m² | - |
| 1777758952 | 15.56° C | 43% | 1017.8 hPa | - | - | 0 W/m² | - |
| 1777758352 | 16.11° C | 41% | 1017.9 hPa | - | - | 0 W/m² | - |
| 1777757752 | 16.11° C | 43% | 1017.9 hPa | - | - | 0 W/m² | - |
| 1777757152 | 16.67° C | 40% | 1017.9 hPa | - | - | 0 W/m² | - |
| 1777756552 | 16.67° C | 39% | 1017.9 hPa | - | - | 0 W/m² | - |
| 1777755952 | 16.67° C | 42% | 1017.8 hPa | - | - | 0 W/m² | - |
| 1777755352 | 17.78° C | 39% | 1017.8 hPa | - | - | 0 W/m² | - |
| 1777754752 | 18.33° C | 32% | 1017.8 hPa | - | - | 0 W/m² | - |
| 1777754152 | 18.89° C | 31% | 1017.8 hPa | - | - | 0 W/m² | - |
| 1777753552 | 18.89° C | 30% | 1017.9 hPa | - | - | 0 W/m² | - |
| 1777752952 | 19.44° C | 29% | 1017.9 hPa | - | - | 0 W/m² | - |
| 1777752352 | 20° C | 28% | 1017.9 hPa | - | - | 0 W/m² | - |
| 1777751752 | 20° C | 28% | 1018 hPa | - | - | 0 W/m² | - |
| 1777751152 | 20° C | 28% | 1018 hPa | - | - | 0 W/m² | - |
| 1777750552 | 20.56° C | 27% | 1017.9 hPa | - | - | 0 W/m² | - |
| 1777749952 | 20.56° C | 27% | 1017.9 hPa | - | - | 0 W/m² | - |
| 1777749352 | 20.56° C | 26% | 1017.8 hPa | - | - | 0 W/m² | - |
| 1777748752 | 21.11° C | 26% | 1017.8 hPa | - | - | 0 W/m² | - |
* Rain since midnight (hover to see other rain measurements)
** Current wind speed in m/s (hover to see current wind gust speed)